Time;durP1;ratioP1;P1;durP2;ratioP2;P2;SDS_P1;SDS_P2;PMS_P1;PMS_P2;Temp;Humidity;BMP_temperature;BMP_pressure;BME280_temperature;BME280_humidity;BME280_pressure;Samples;Min_cycle;Max_cycle;Signal;HPM_P1;HPM_P2
2024/01/09 00:00:25;;;;;;;6.10;1.67;;;2.20;99.90;;;;;;5090485;28;20040;-68
2024/01/09 00:02:52;;;;;;;13.15;2.20;;;2.20;99.90;;;;;;5095014;28;20048;-63
2024/01/09 00:05:20;;;;;;;7.10;1.63;;;2.20;99.90;;;;;;5096652;28;20406;-63
2024/01/09 00:07:48;;;;;;;11.18;1.70;;;2.20;99.90;;;;;;5086303;28;20052;-63
2024/01/09 00:10:16;;;;;;;6.28;1.25;;;2.20;99.90;;;;;;5088257;28;20048;-70
2024/01/09 00:12:43;;;;;;;13.98;1.90;;;2.20;99.90;;;;;;5087081;28;20402;-64
2024/01/09 00:15:11;;;;;;;8.63;1.52;;;2.20;99.90;;;;;;5085516;28;20044;-63
2024/01/09 00:17:41;;;;;;;9.05;1.70;;;2.20;99.90;;;;;;5090215;28;20051;-65
2024/01/09 00:20:10;;;;;;;11.38;1.35;;;2.20;99.90;;;;;;5089131;28;20051;-63
2024/01/09 00:22:38;;;;;;;6.53;1.60;;;2.20;99.90;;;;;;5090739;28;20052;-64
2024/01/09 00:25:06;;;;;;;7.70;1.70;;;2.20;99.90;;;;;;5110908;28;20039;-63
2024/01/09 00:27:35;;;;;;;3.33;1.20;;;2.20;99.90;;;;;;5083495;28;20043;-64
2024/01/09 00:30:03;;;;;;;25.35;3.10;;;2.20;99.90;;;;;;5088548;28;20063;-62
2024/01/09 00:32:31;;;;;;;21.73;2.20;;;2.20;99.90;;;;;;5094845;28;20050;-64
2024/01/09 00:34:59;;;;;;;10.90;1.52;;;2.20;99.90;;;;;;5087829;28;20052;-66
2024/01/09 00:37:27;;;;;;;5.78;1.45;;;2.20;99.90;;;;;;5088253;28;20052;-63
2024/01/09 00:39:54;;;;;;;6.00;1.17;;;2.20;99.90;;;;;;5089532;28;20395;-64
2024/01/09 00:42:22;;;;;;;9.95;1.88;;;2.20;99.90;;;;;;5087410;28;20044;-64
2024/01/09 00:44:50;;;;;;;16.50;3.20;;;2.20;99.90;;;;;;5088813;28;20044;-64
2024/01/09 00:47:17;;;;;;;6.45;1.10;;;2.20;99.90;;;;;;5088543;28;20028;-68
2024/01/09 00:49:46;;;;;;;8.07;1.90;;;2.10;99.90;;;;;;5088697;28;20054;-63
2024/01/09 00:52:14;;;;;;;7.30;3.10;;;2.10;99.90;;;;;;5082971;28;20479;-63
2024/01/09 00:54:43;;;;;;;9.25;1.67;;;2.10;99.90;;;;;;5088258;28;20048;-66
2024/01/09 00:57:11;;;;;;;5.93;1.17;;;2.10;99.90;;;;;;5085543;28;20056;-63
2024/01/09 00:59:38;;;;;;;9.32;1.65;;;2.20;99.90;;;;;;5084468;28;20067;-63
2024/01/09 01:02:06;;;;;;;6.30;1.55;;;2.10;99.90;;;;;;5091502;28;20059;-63
2024/01/09 01:04:38;;;;;;;5.90;1.80;;;2.10;99.90;;;;;;5085891;28;20060;-63
2024/01/09 01:07:05;;;;;;;8.38;1.38;;;2.10;99.90;;;;;;5087512;28;20056;-68
2024/01/09 01:09:33;;;;;;;5.25;1.30;;;2.20;99.90;;;;;;5088352;28;20040;-68
2024/01/09 01:12:00;;;;;;;12.65;1.75;;;2.20;99.90;;;;;;5087266;28;20036;-71
2024/01/09 01:14:28;;;;;;;3.85;1.27;;;2.20;99.90;;;;;;5088757;28;20479;-65
2024/01/09 01:16:56;;;;;;;10.95;1.70;;;2.10;99.90;;;;;;5088106;28;20499;-62
2024/01/09 01:19:24;;;;;;;8.40;1.80;;;2.10;99.90;;;;;;5089336;28;20497;-63
2024/01/09 01:21:52;;;;;;;11.95;1.70;;;2.10;99.90;;;;;;5089521;28;20044;-63
2024/01/09 01:24:19;;;;;;;7.55;2.08;;;2.10;99.90;;;;;;5087754;28;20059;-65
2024/01/09 01:26:47;;;;;;;12.55;2.05;;;2.10;99.90;;;;;;5088968;28;20044;-63
2024/01/09 01:29:15;;;;;;;7.00;1.33;;;2.10;99.90;;;;;;5080357;28;20679;-63
2024/01/09 01:31:44;;;;;;;6.88;1.92;;;2.10;99.90;;;;;;5089143;28;20518;-64
2024/01/09 01:34:12;;;;;;;6.57;1.52;;;2.10;99.90;;;;;;5092675;28;20039;-64
2024/01/09 01:36:40;;;;;;;13.68;2.47;;;2.10;99.90;;;;;;5087755;28;20047;-67
2024/01/09 01:39:07;;;;;;;10.27;2.13;;;2.10;99.90;;;;;;5094394;28;20052;-65
2024/01/09 01:41:35;;;;;;;8.65;2.15;;;2.10;99.90;;;;;;5089036;28;20353;-65
2024/01/09 01:44:14;;;;;;;15.32;1.67;;;2.10;99.90;;;;;;5092560;28;20047;-63
2024/01/09 01:46:43;;;;;;;12.07;2.30;;;2.10;99.90;;;;;;5070470;28;20036;-62
2024/01/09 01:49:16;;;;;;;11.63;2.40;;;2.00;99.90;;;;;;5099964;28;20491;-63
2024/01/09 01:51:48;;;;;;;9.07;1.50;;;2.00;99.90;;;;;;5072934;28;20380;-62
2024/01/09 01:54:16;;;;;;;11.98;1.63;;;2.00;99.90;;;;;;5098288;28;20511;-62
2024/01/09 01:56:46;;;;;;;10.05;1.60;;;2.00;99.90;;;;;;5088547;28;20051;-63
2024/01/09 01:59:16;;;;;;;9.45;1.63;;;2.00;99.90;;;;;;5083061;28;20048;-64
2024/01/09 02:01:46;;;;;;;9.95;1.52;;;2.00;99.90;;;;;;5086737;28;20062;-63
2024/01/09 02:04:15;;;;;;;7.55;1.35;;;1.90;99.90;;;;;;5089237;28;20054;-66
2024/01/09 02:06:44;;;;;;;5.07;1.20;;;1.90;99.90;;;;;;5087782;28;20063;-66
2024/01/09 02:09:13;;;;;;;10.50;1.77;;;1.90;99.90;;;;;;5085203;28;20542;-64
2024/01/09 02:11:41;;;;;;;9.50;1.40;;;1.90;99.90;;;;;;5101926;28;20051;-63
2024/01/09 02:14:08;;;;;;;7.65;1.52;;;1.90;99.90;;;;;;5082477;28;20366;-63
2024/01/09 02:16:36;;;;;;;17.92;1.40;;;1.90;99.90;;;;;;5088478;28;20059;-65
2024/01/09 02:19:14;;;;;;;7.65;1.27;;;1.80;99.90;;;;;;5086334;28;20060;-64
2024/01/09 02:21:42;;;;;;;4.97;1.33;;;1.80;99.90;;;;;;5086927;28;20063;-63
2024/01/09 02:24:10;;;;;;;7.05;2.22;;;1.80;99.90;;;;;;5084668;28;20052;-63
2024/01/09 02:26:44;;;;;;;17.20;1.77;;;1.80;99.90;;;;;;5087777;28;20042;-63
2024/01/09 02:29:32;;;;;;;3.70;1.30;;;1.80;99.90;;;;;;5094168;28;20056;-66
2024/01/09 02:32:02;;;;;;;5.97;1.30;;;1.80;99.90;;;;;;5083857;28;20039;-66
2024/01/09 02:34:33;;;;;;;6.78;1.45;;;1.80;99.90;;;;;;5089786;28;20040;-63
2024/01/09 02:37:01;;;;;;;7.13;1.45;;;1.80;99.90;;;;;;5085282;28;20044;-63
2024/01/09 02:39:32;;;;;;;8.10;1.50;;;1.80;99.90;;;;;;5089808;28;20047;-64
2024/01/09 02:41:59;;;;;;;2.90;1.17;;;1.80;99.90;;;;;;5091256;28;20052;-63
2024/01/09 02:44:27;;;;;;;7.53;1.58;;;1.80;99.90;;;;;;5074856;28;20052;-63
2024/01/09 02:46:54;;;;;;;4.53;1.10;;;1.80;99.90;;;;;;5086810;28;20044;-62
2024/01/09 02:49:22;;;;;;;6.43;0.90;;;1.90;99.90;;;;;;5090100;28;20044;-62
2024/01/09 02:51:50;;;;;;;9.23;1.73;;;1.80;99.90;;;;;;5090434;28;20040;-62
2024/01/09 02:54:17;;;;;;;7.80;1.77;;;1.90;99.90;;;;;;5091239;28;20054;-62
2024/01/09 02:56:45;;;;;;;7.72;1.17;;;1.90;99.90;;;;;;5090788;28;20597;-63
2024/01/09 02:59:13;;;;;;;12.75;2.25;;;1.90;99.90;;;;;;5094491;28;20404;-64
2024/01/09 03:01:41;;;;;;;11.00;2.92;;;1.90;99.90;;;;;;5098181;28;20036;-64
2024/01/09 03:04:08;;;;;;;9.93;1.45;;;1.90;99.90;;;;;;5113888;28;20375;-63
2024/01/09 03:06:36;;;;;;;9.23;1.00;;;1.90;99.90;;;;;;5090983;28;20040;-62
2024/01/09 03:09:04;;;;;;;4.50;1.42;;;1.80;99.90;;;;;;5094235;28;20399;-63
2024/01/09 03:11:31;;;;;;;3.38;1.38;;;1.80;99.90;;;;;;5093922;28;20416;-62
2024/01/09 03:13:59;;;;;;;6.30;1.25;;;1.80;99.90;;;;;;5091926;28;20043;-62
2024/01/09 03:16:26;;;;;;;10.73;1.95;;;1.80;99.90;;;;;;5094538;28;20052;-63
2024/01/09 03:18:54;;;;;;;7.72;1.35;;;1.80;99.90;;;;;;5094089;28;20059;-62
2024/01/09 03:21:22;;;;;;;6.63;2.33;;;1.80;99.90;;;;;;5095432;28;20040;-62
2024/01/09 03:23:49;;;;;;;7.82;1.83;;;1.70;99.90;;;;;;5103024;28;20495;-62
2024/01/09 03:26:17;;;;;;;13.60;2.15;;;1.70;99.90;;;;;;5093786;28;20051;-63
2024/01/09 03:28:45;;;;;;;5.07;0.93;;;1.80;99.90;;;;;;5093567;28;20495;-64
2024/01/09 03:31:23;;;;;;;3.72;1.00;;;1.80;99.90;;;;;;5093289;28;20040;-63
2024/01/09 03:33:51;;;;;;;12.60;1.98;;;1.80;99.90;;;;;;5099954;28;20056;-62
2024/01/09 03:36:18;;;;;;;11.20;1.63;;;1.70;99.90;;;;;;5093924;28;20070;-62
2024/01/09 03:38:46;;;;;;;6.15;1.60;;;1.70;99.90;;;;;;5094268;28;20051;-62
2024/01/09 03:41:14;;;;;;;6.30;1.38;;;1.70;99.90;;;;;;5094670;28;20048;-64
2024/01/09 03:43:42;;;;;;;8.02;1.17;;;1.70;99.90;;;;;;5092820;28;20052;-64
2024/01/09 03:46:09;;;;;;;8.82;1.23;;;1.70;99.90;;;;;;5090574;28;20063;-65
2024/01/09 03:48:37;;;;;;;5.45;1.00;;;1.70;99.90;;;;;;5094309;28;20507;-63
2024/01/09 03:51:05;;;;;;;12.63;1.70;;;1.60;99.90;;;;;;5093754;28;20126;-63
2024/01/09 03:53:32;;;;;;;7.13;1.48;;;1.60;99.90;;;;;;5094216;28;20522;-66
2024/01/09 03:56:00;;;;;;;8.95;1.10;;;1.60;99.90;;;;;;5094347;28;20059;-63
2024/01/09 03:58:27;;;;;;;5.88;1.10;;;1.60;99.90;;;;;;5093250;28;20040;-63
2024/01/09 04:00:55;;;;;;;6.18;1.10;;;1.60;99.90;;;;;;5093845;28;20471;-62
2024/01/09 04:03:23;;;;;;;18.92;2.25;;;1.50;99.90;;;;;;5098808;28;20484;-64
2024/01/09 04:05:50;;;;;;;12.50;1.88;;;1.50;99.90;;;;;;5089536;28;20047;-62
2024/01/09 04:08:18;;;;;;;6.53;1.63;;;1.50;99.90;;;;;;5082472;28;20055;-64
2024/01/09 04:10:46;;;;;;;7.13;1.70;;;1.50;99.90;;;;;;5092257;28;20048;-64
2024/01/09 04:13:14;;;;;;;7.25;1.15;;;1.50;99.90;;;;;;5093395;28;20055;-63
2024/01/09 04:15:41;;;;;;;4.18;0.93;;;1.50;99.90;;;;;;5092634;28;20040;-63
2024/01/09 04:18:09;;;;;;;7.93;1.63;;;1.50;99.90;;;;;;5080640;28;20051;-63
2024/01/09 04:20:37;;;;;;;12.73;1.77;;;1.60;99.90;;;;;;5092994;28;20044;-63
2024/01/09 04:23:05;;;;;;;10.80;0.98;;;1.60;99.90;;;;;;5091850;28;20044;-63
2024/01/09 04:25:32;;;;;;;5.07;1.30;;;1.70;99.90;;;;;;5088508;28;20047;-64
2024/01/09 04:28:00;;;;;;;10.23;1.67;;;1.70;99.90;;;;;;5093369;28;20044;-63
2024/01/09 04:30:28;;;;;;;7.05;1.35;;;1.70;99.90;;;;;;5098096;28;20536;-63
2024/01/09 04:32:56;;;;;;;13.20;1.80;;;1.60;99.90;;;;;;5096456;28;20044;-63
2024/01/09 04:35:23;;;;;;;6.60;1.55;;;1.60;99.90;;;;;;5092839;28;20411;-63
2024/01/09 04:37:51;;;;;;;11.15;1.90;;;1.60;99.90;;;;;;5089583;28;20049;-62
2024/01/09 04:40:19;;;;;;;8.45;1.50;;;1.60;99.90;;;;;;5092445;28;20059;-63
2024/01/09 04:42:46;;;;;;;11.05;1.55;;;1.60;99.90;;;;;;5093500;28;20040;-64
2024/01/09 04:45:14;;;;;;;5.85;1.33;;;1.60;99.90;;;;;;5092312;28;20385;-63
2024/01/09 04:47:42;;;;;;;9.13;1.50;;;1.60;99.90;;;;;;5093172;28;20051;-63
2024/01/09 04:50:10;;;;;;;9.18;1.27;;;1.50;99.90;;;;;;5092558;28;20051;-63
2024/01/09 04:52:37;;;;;;;14.00;1.98;;;1.50;99.90;;;;;;5072802;28;20052;-63
2024/01/09 04:55:05;;;;;;;7.70;1.02;;;1.50;99.90;;;;;;5072813;28;20048;-62
2024/01/09 04:57:33;;;;;;;8.52;1.70;;;1.50;99.90;;;;;;5086254;28;20040;-65
2024/01/09 05:00:00;;;;;;;12.18;2.53;;;1.50;99.90;;;;;;5091486;28;20052;-68
2024/01/09 05:02:28;;;;;;;6.20;1.35;;;1.40;99.90;;;;;;5090894;28;20503;-63
2024/01/09 05:04:56;;;;;;;10.40;1.20;;;1.40;99.90;;;;;;5082588;28;20055;-63
2024/01/09 05:07:24;;;;;;;3.75;1.20;;;1.40;99.90;;;;;;5092270;28;20043;-63
2024/01/09 05:09:51;;;;;;;6.80;1.60;;;1.30;99.90;;;;;;5092350;28;20043;-65
2024/01/09 05:12:20;;;;;;;8.93;1.63;;;1.30;99.90;;;;;;5091805;28;20048;-67
2024/01/09 05:14:48;;;;;;;12.25;1.67;;;1.30;99.90;;;;;;5091134;28;20048;-63
2024/01/09 05:17:15;;;;;;;10.23;1.60;;;1.20;99.90;;;;;;5092561;28;20048;-63
2024/01/09 05:19:43;;;;;;;9.50;1.45;;;1.30;99.90;;;;;;5092558;28;20055;-62
2024/01/09 05:22:11;;;;;;;7.95;1.52;;;1.20;99.90;;;;;;5091170;28;20383;-63
2024/01/09 05:24:38;;;;;;;12.52;1.92;;;1.20;99.90;;;;;;5092471;28;20040;-62
2024/01/09 05:27:06;;;;;;;8.95;1.20;;;1.10;99.90;;;;;;5092148;28;20052;-63
2024/01/09 05:29:38;;;;;;;9.18;1.65;;;1.10;99.90;;;;;;5091839;28;20036;-62
2024/01/09 05:32:06;;;;;;;11.07;1.80;;;1.10;99.90;;;;;;5094734;28;20043;-64
2024/01/09 05:34:34;;;;;;;9.82;1.60;;;1.10;99.90;;;;;;5094839;28;20044;-63
2024/01/09 05:37:02;;;;;;;7.72;1.52;;;1.10;99.90;;;;;;5091938;28;20055;-67
2024/01/09 05:39:30;;;;;;;8.68;1.88;;;1.10;99.90;;;;;;5092143;28;20044;-63
2024/01/09 05:41:57;;;;;;;4.20;1.67;;;1.10;99.90;;;;;;5083108;28;20056;-65
2024/01/09 05:44:25;;;;;;;5.25;1.33;;;1.10;99.90;;;;;;5070330;28;20049;-62
2024/01/09 05:46:53;;;;;;;16.92;2.55;;;1.10;99.90;;;;;;5086319;28;20055;-63
2024/01/09 05:49:21;;;;;;;5.75;1.60;;;1.10;99.90;;;;;;5068627;28;20068;-64
2024/01/09 05:51:49;;;;;;;5.85;1.83;;;1.00;99.90;;;;;;5067331;28;20036;-66
2024/01/09 05:54:16;;;;;;;9.57;1.30;;;1.00;99.90;;;;;;5068545;28;20037;-71
2024/01/09 05:56:44;;;;;;;4.10;1.50;;;1.00;99.90;;;;;;5077953;28;20399;-64
2024/01/09 05:59:12;;;;;;;12.27;1.65;;;1.00;99.90;;;;;;5087619;28;20051;-64
2024/01/09 06:01:39;;;;;;;11.80;1.77;;;1.00;99.90;;;;;;5086469;28;20063;-66
2024/01/09 06:04:07;;;;;;;13.85;1.90;;;1.00;99.90;;;;;;5075877;28;20055;-63
2024/01/09 06:06:35;;;;;;;11.02;1.88;;;1.00;99.90;;;;;;5085041;28;20048;-63
2024/01/09 06:09:06;;;;;;;13.20;2.03;;;1.00;99.90;;;;;;5087725;28;20483;-63
2024/01/09 06:11:34;;;;;;;6.05;1.40;;;1.00;99.90;;;;;;5085948;28;20044;-62
2024/01/09 06:14:02;;;;;;;7.05;1.65;;;1.00;99.90;;;;;;5087753;28;20055;-68
2024/01/09 06:16:29;;;;;;;11.10;2.08;;;1.00;99.90;;;;;;5087127;28;20052;-63
2024/01/09 06:18:57;;;;;;;7.28;1.75;;;1.00;99.90;;;;;;5080053;28;20051;-63
2024/01/09 06:21:25;;;;;;;11.77;2.00;;;1.00;99.90;;;;;;5083022;28;20048;-63
2024/01/09 06:23:53;;;;;;;6.82;1.27;;;1.00;99.90;;;;;;5091521;28;20040;-63
2024/01/09 06:26:20;;;;;;;5.35;1.45;;;1.00;99.90;;;;;;5085404;28;20059;-64
2024/01/09 06:28:48;;;;;;;7.70;1.77;;;1.00;99.90;;;;;;5079697;28;20029;-65
2024/01/09 06:31:16;;;;;;;11.82;1.90;;;0.90;99.90;;;;;;5082538;28;20044;-64
2024/01/09 06:33:43;;;;;;;7.13;1.67;;;1.00;99.90;;;;;;5090580;28;20040;-63
2024/01/09 06:36:11;;;;;;;11.05;1.73;;;0.90;99.90;;;;;;5087136;28;20044;-63
2024/01/09 06:38:39;;;;;;;9.02;1.90;;;0.90;99.90;;;;;;5087826;28;20040;-65
2024/01/09 06:41:07;;;;;;;9.00;2.17;;;0.90;99.90;;;;;;5087361;28;20052;-63
2024/01/09 06:43:35;;;;;;;10.27;2.65;;;0.90;99.90;;;;;;5088685;28;20048;-67
2024/01/09 06:46:02;;;;;;;12.82;2.67;;;0.90;99.90;;;;;;5088191;28;20040;-71
2024/01/09 06:48:30;;;;;;;11.55;1.92;;;0.90;99.90;;;;;;5077501;28;20044;-63
2024/01/09 06:50:58;;;;;;;4.13;1.42;;;0.90;99.90;;;;;;5086611;28;20036;-62
2024/01/09 06:53:25;;;;;;;14.73;2.08;;;0.80;99.90;;;;;;5086619;28;20520;-65
2024/01/09 06:55:54;;;;;;;9.75;2.05;;;0.90;99.90;;;;;;5080296;28;20040;-64
2024/01/09 06:58:21;;;;;;;7.93;1.95;;;0.90;99.90;;;;;;5077677;28;20079;-63
2024/01/09 07:00:49;;;;;;;7.00;1.52;;;0.90;99.90;;;;;;5081764;28;20044;-62
2024/01/09 07:03:16;;;;;;;9.60;1.60;;;0.80;99.90;;;;;;5077653;28;20044;-69
2024/01/09 07:05:45;;;;;;;10.57;1.63;;;0.90;99.90;;;;;;5080356;28;20041;-63
2024/01/09 07:08:13;;;;;;;9.27;1.83;;;0.90;99.90;;;;;;5076691;28;20043;-62
2024/01/09 07:10:41;;;;;;;8.98;1.67;;;0.90;99.90;;;;;;5082148;28;20048;-62
2024/01/09 07:13:08;;;;;;;7.40;1.20;;;0.80;99.90;;;;;;5081808;28;20056;-62
2024/01/09 07:15:36;;;;;;;9.88;1.50;;;0.80;99.90;;;;;;5084707;28;20391;-63
2024/01/09 07:18:04;;;;;;;8.15;1.25;;;0.80;99.90;;;;;;5077443;28;20041;-64
2024/01/09 07:20:32;;;;;;;8.68;1.58;;;0.80;99.90;;;;;;5085289;28;20387;-71
2024/01/09 07:23:02;;;;;;;7.10;1.35;;;0.80;99.90;;;;;;5093085;28;20040;-70
2024/01/09 07:25:43;;;;;;;13.80;3.15;;;0.80;99.90;;;;;;5086507;28;20044;-70
2024/01/09 07:28:10;;;;;;;8.90;1.55;;;0.80;99.90;;;;;;5087145;28;20067;-65
2024/01/09 07:30:38;;;;;;;11.43;2.53;;;0.80;99.90;;;;;;5073852;28;20036;-69
2024/01/09 07:33:06;;;;;;;11.32;1.60;;;0.80;99.90;;;;;;5082451;28;20052;-67
2024/01/09 07:35:37;;;;;;;6.38;1.63;;;0.80;99.90;;;;;;5075437;28;20391;-71
2024/01/09 07:38:05;;;;;;;17.58;1.80;;;0.80;99.90;;;;;;5069686;28;20036;-71
2024/01/09 07:40:33;;;;;;;7.60;1.58;;;0.80;99.90;;;;;;5089877;28;20044;-67
2024/01/09 07:43:01;;;;;;;9.95;1.55;;;0.80;99.90;;;;;;5100679;28;20515;-62
2024/01/09 07:45:29;;;;;;;8.07;1.45;;;0.80;99.90;;;;;;5110098;28;20051;-63
2024/01/09 07:47:59;;;;;;;13.50;2.28;;;0.70;99.90;;;;;;5085650;28;20048;-64
2024/01/09 07:50:27;;;;;;;11.63;2.28;;;0.80;99.90;;;;;;5083919;28;20055;-62
2024/01/09 07:52:55;;;;;;;11.40;2.03;;;0.80;99.90;;;;;;5089466;28;20055;-64
2024/01/09 07:55:23;;;;;;;11.70;1.77;;;0.80;99.90;;;;;;5089866;28;20052;-63
2024/01/09 07:57:50;;;;;;;14.48;1.90;;;0.80;99.90;;;;;;5086286;28;20059;-64
2024/01/09 08:00:18;;;;;;;11.52;1.70;;;0.80;99.90;;;;;;5086494;28;20059;-62
2024/01/09 08:02:46;;;;;;;8.70;1.70;;;0.80;99.90;;;;;;5088395;28;20043;-62
2024/01/09 08:05:14;;;;;;;16.17;3.10;;;0.80;99.90;;;;;;5068275;28;20052;-63
2024/01/09 08:07:42;;;;;;;15.75;2.40;;;0.80;99.90;;;;;;5071484;28;20028;-64
2024/01/09 08:10:09;;;;;;;7.55;2.42;;;0.80;99.90;;;;;;5073270;28;20052;-63
2024/01/09 08:12:37;;;;;;;9.40;2.28;;;0.80;99.90;;;;;;5078246;28;20446;-64
2024/01/09 08:15:05;;;;;;;11.40;1.60;;;0.80;99.90;;;;;;5075905;28;20414;-64
2024/01/09 08:17:33;;;;;;;10.43;1.70;;;0.80;99.90;;;;;;5087492;28;20055;-65
2024/01/09 08:20:03;;;;;;;8.43;1.38;;;0.80;99.90;;;;;;5082712;28;20044;-69
2024/01/09 08:22:31;;;;;;;6.13;1.42;;;0.80;99.90;;;;;;5085551;28;20048;-62
2024/01/09 08:24:59;;;;;;;8.25;1.25;;;0.80;99.90;;;;;;5079500;28;20044;-64
2024/01/09 08:27:26;;;;;;;9.45;2.00;;;0.80;99.90;;;;;;5077570;28;20054;-64
2024/01/09 08:29:54;;;;;;;7.07;1.42;;;0.80;99.90;;;;;;5102191;28;20041;-63
2024/01/09 08:32:22;;;;;;;5.97;1.58;;;0.80;99.90;;;;;;5075481;28;20062;-63
2024/01/09 08:34:51;;;;;;;4.43;1.35;;;0.80;99.90;;;;;;5079891;28;20036;-72
2024/01/09 08:37:19;;;;;;;11.27;2.05;;;0.80;99.90;;;;;;5072259;28;20055;-70
2024/01/09 08:39:47;;;;;;;9.52;1.85;;;0.80;99.90;;;;;;5086679;28;20044;-67
2024/01/09 08:42:15;;;;;;;5.78;1.58;;;0.80;99.90;;;;;;5089485;28;20040;-71
2024/01/09 08:44:43;;;;;;;12.40;1.75;;;0.80;99.90;;;;;;5088711;28;20047;-72
2024/01/09 08:47:12;;;;;;;14.88;1.92;;;0.90;99.90;;;;;;5088726;28;20063;-70
2024/01/09 08:49:40;;;;;;;9.77;2.38;;;0.80;99.90;;;;;;5083974;28;20048;-66
2024/01/09 08:52:08;;;;;;;8.18;1.27;;;0.90;99.90;;;;;;5085944;28;20048;-64
2024/01/09 08:54:35;;;;;;;11.10;1.70;;;0.90;99.90;;;;;;5089622;28;20044;-64
2024/01/09 08:57:05;;;;;;;17.13;2.58;;;0.90;99.90;;;;;;5087492;28;20055;-65
2024/01/09 08:59:32;;;;;;;9.10;2.13;;;0.90;99.90;;;;;;5086798;28;20090;-63
2024/01/09 09:02:00;;;;;;;11.30;2.42;;;1.00;99.90;;;;;;5089500;28;20055;-63
2024/01/09 09:04:28;;;;;;;15.93;2.50;;;1.00;99.90;;;;;;5084037;28;20048;-71
2024/01/09 09:06:55;;;;;;;12.07;2.17;;;1.10;99.90;;;;;;5069153;28;20059;-70
2024/01/09 09:09:23;;;;;;;10.95;1.52;;;1.10;99.90;;;;;;5107294;28;20055;-71
2024/01/09 09:11:51;;;;;;;13.10;1.30;;;1.10;99.90;;;;;;5091620;28;20052;-70
2024/01/09 09:14:19;;;;;;;15.57;2.08;;;1.10;99.90;;;;;;5088958;28;20044;-65
2024/01/09 09:16:47;;;;;;;7.40;1.52;;;1.20;99.90;;;;;;5088976;28;20048;-62
2024/01/09 09:19:14;;;;;;;8.32;1.73;;;1.20;99.90;;;;;;5069085;28;20052;-71
2024/01/09 09:21:42;;;;;;;8.45;1.75;;;1.20;99.90;;;;;;5081062;28;20067;-63
2024/01/09 09:24:10;;;;;;;8.13;1.65;;;1.30;99.90;;;;;;5088173;28;20554;-63
2024/01/09 09:26:37;;;;;;;4.07;1.25;;;1.30;99.90;;;;;;5089320;28;20048;-63
2024/01/09 09:29:05;;;;;;;12.02;2.08;;;1.30;99.90;;;;;;5086671;28;20036;-69
2024/01/09 09:31:48;;;;;;;6.53;1.73;;;1.40;99.90;;;;;;5088797;28;20051;-63
2024/01/09 09:34:16;;;;;;;5.85;1.45;;;1.40;99.90;;;;;;5087144;28;20044;-70
2024/01/09 09:36:44;;;;;;;8.38;2.78;;;1.50;99.90;;;;;;5086379;28;20055;-68
2024/01/09 09:39:11;;;;;;;12.27;1.83;;;1.50;99.90;;;;;;5088912;28;20572;-69
2024/01/09 09:41:43;;;;;;;11.73;1.63;;;1.50;99.90;;;;;;5088859;28;20384;-69
2024/01/09 09:44:14;;;;;;;11.38;1.80;;;1.50;99.90;;;;;;5101886;28;20198;-68
2024/01/09 09:46:45;;;;;;;9.23;2.17;;;1.60;99.90;;;;;;5107969;28;20492;-66
2024/01/09 09:49:13;;;;;;;9.18;1.52;;;1.60;99.90;;;;;;5092735;28;20048;-64
2024/01/09 09:51:42;;;;;;;7.28;1.30;;;1.70;99.90;;;;;;5090706;28;20518;-69
2024/01/09 09:54:12;;;;;;;7.05;1.55;;;1.70;99.90;;;;;;5089282;28;20400;-71
2024/01/09 09:56:41;;;;;;;;;;;1.70;99.90;;;;;;5089289;28;20408;-69
2024/01/09 09:59:13;;;;;;;11.68;1.70;;;1.80;99.90;;;;;;5101226;28;19931;-65
2024/01/09 10:01:41;;;;;;;4.45;1.02;;;1.80;99.90;;;;;;5089023;28;20506;-69
2024/01/09 10:04:30;;;;;;;7.97;2.03;;;1.90;99.90;;;;;;5100973;28;20059;-63
2024/01/09 10:07:00;;;;;;;11.77;2.30;;;1.90;99.90;;;;;;5067706;28;20044;-65
2024/01/09 10:09:35;;;;;;;7.57;2.13;;;1.90;99.90;;;;;;5086205;28;20040;-65
2024/01/09 10:12:03;;;;;;;8.00;1.40;;;2.00;99.90;;;;;;5084999;28;20515;-65
2024/01/09 10:14:31;;;;;;;9.88;1.50;;;2.00;99.90;;;;;;5088245;28;20055;-63
2024/01/09 10:17:03;;;;;;;8.48;1.48;;;2.00;99.90;;;;;;5088533;28;20051;-65
2024/01/09 10:19:31;;;;;;;5.43;1.70;;;2.10;99.90;;;;;;5088244;28;20040;-62
2024/01/09 10:21:58;;;;;;;6.85;1.35;;;2.10;99.90;;;;;;5073883;28;20040;-63
2024/01/09 10:24:26;;;;;;;4.57;1.30;;;2.10;99.90;;;;;;5088062;28;20050;-64
2024/01/09 10:26:55;;;;;;;8.93;1.27;;;2.20;99.90;;;;;;5072232;28;20048;-63
2024/01/09 10:29:23;;;;;;;13.75;1.63;;;2.30;99.90;;;;;;5086731;28;20044;-68
2024/01/09 10:31:51;;;;;;;12.35;1.67;;;2.30;99.90;;;;;;5084718;28;20044;-71
2024/01/09 10:34:19;;;;;;;9.13;2.17;;;2.40;99.90;;;;;;5088037;28;20055;-71
2024/01/09 10:36:47;;;;;;;9.25;1.67;;;2.40;99.90;;;;;;5069598;28;20040;-66
2024/01/09 10:39:15;;;;;;;7.38;2.33;;;2.40;99.90;;;;;;5084034;28;20047;-63
2024/01/09 10:41:42;;;;;;;5.88;1.33;;;2.40;99.90;;;;;;5086548;28;20045;-68
2024/01/09 10:44:14;;;;;;;12.80;1.23;;;2.50;99.90;;;;;;5087540;28;20040;-72
2024/01/09 10:46:43;;;;;;;7.53;1.27;;;2.60;99.90;;;;;;5087342;28;20055;-71
2024/01/09 10:49:12;;;;;;;12.02;1.67;;;2.60;99.90;;;;;;5086427;28;20048;-70
2024/01/09 10:51:42;;;;;;;9.97;1.97;;;2.70;99.90;;;;;;5093803;28;20058;-64
2024/01/09 10:54:11;;;;;;;8.88;1.65;;;2.80;99.90;;;;;;5088801;28;20055;-66
2024/01/09 10:56:41;;;;;;;8.73;1.73;;;2.80;99.90;;;;;;5088252;28;20040;-63
2024/01/09 10:59:11;;;;;;;3.88;1.02;;;2.90;99.90;;;;;;5087518;28;20503;-63
2024/01/09 11:01:38;;;;;;;;;;;3.00;99.90;;;;;;5088319;28;20045;-64
2024/01/09 11:04:07;;;;;;;7.03;1.83;;;3.00;99.90;;;;;;5087693;28;19946;-63
2024/01/09 11:06:36;;;;;;;5.55;1.60;;;3.10;99.90;;;;;;5079035;28;20043;-68
2024/01/09 11:09:08;;;;;;;12.88;1.90;;;3.20;99.90;;;;;;5087439;28;20395;-68
2024/01/09 11:11:37;;;;;;;13.05;2.55;;;3.20;99.90;;;;;;5087526;28;20052;-65
2024/01/09 11:14:07;;;;;;;9.60;2.30;;;3.30;99.90;;;;;;5087083;28;20054;-65
2024/01/09 11:16:36;;;;;;;;;;;3.40;99.90;;;;;;5093589;28;20395;-63
2024/01/09 11:19:07;;;;;;;12.52;2.08;;;3.50;99.90;;;;;;5093835;28;19924;-64
2024/01/09 11:21:35;;;;;;;8.82;2.20;;;3.60;99.90;;;;;;5094420;28;20040;-71
2024/01/09 11:24:03;;;;;;;6.65;1.45;;;3.70;99.90;;;;;;5091209;28;20044;-69
2024/01/09 11:26:38;;;;;;;12.57;2.10;;;3.70;99.90;;;;;;5091584;28;20767;-68
2024/01/09 11:29:06;;;;;;;9.27;1.80;;;3.80;99.90;;;;;;5087157;28;20052;-71
2024/01/09 11:31:35;;;;;;;14.45;1.77;;;3.90;99.90;;;;;;5091581;28;20047;-63
2024/01/09 11:34:02;;;;;;;6.93;1.48;;;4.00;99.90;;;;;;5091030;28;20062;-68
2024/01/09 11:36:34;;;;;;;6.82;1.10;;;4.10;99.90;;;;;;5079120;28;20049;-63
2024/01/09 11:39:04;;;;;;;8.35;1.52;;;4.20;99.90;;;;;;5086463;28;20044;-63
2024/01/09 11:41:33;;;;;;;9.40;1.48;;;4.30;99.90;;;;;;5091375;28;20115;-63
2024/01/09 11:44:03;;;;;;;15.13;2.33;;;4.30;99.90;;;;;;5096684;28;20047;-62
2024/01/09 11:46:36;;;;;;;8.43;1.48;;;4.40;99.90;;;;;;5073171;28;20063;-62
2024/01/09 11:49:05;;;;;;;5.38;1.20;;;4.50;99.90;;;;;;5090969;28;20055;-62
2024/01/09 11:51:34;;;;;;;8.95;1.58;;;4.60;99.90;;;;;;5090316;28;20686;-64
2024/01/09 11:54:03;;;;;;;11.38;1.83;;;4.60;99.90;;;;;;5099323;28;20048;-62
2024/01/09 11:56:31;;;;;;;6.30;1.55;;;4.60;99.90;;;;;;5075347;28;20040;-63
2024/01/09 11:59:00;;;;;;;11.38;1.65;;;4.60;99.90;;;;;;5085599;28;20059;-66
2024/01/09 12:01:28;;;;;;;6.03;1.13;;;4.80;99.90;;;;;;5090697;28;20044;-65
2024/01/09 12:03:57;;;;;;;7.00;1.90;;;4.90;99.90;;;;;;5096935;28;20048;-66
2024/01/09 12:06:28;;;;;;;9.27;1.52;;;5.10;99.90;;;;;;5084162;28;20040;-66
2024/01/09 12:08:56;;;;;;;7.75;1.42;;;5.20;99.90;;;;;;5084971;28;20044;-63
2024/01/09 12:11:24;;;;;;;7.88;1.63;;;5.40;99.90;;;;;;5090279;28;20040;-65
2024/01/09 12:14:00;;;;;;;13.82;2.00;;;5.60;99.90;;;;;;5088684;28;20059;-63
2024/01/09 12:16:31;;;;;;;9.88;1.73;;;5.80;99.90;;;;;;5089091;28;20036;-67
2024/01/09 12:19:00;;;;;;;8.63;1.83;;;6.00;99.90;;;;;;5084776;28;20041;-69
2024/01/09 12:21:33;;;;;;;16.42;1.73;;;6.10;99.90;;;;;;5073078;28;20044;-69
2024/01/09 12:24:04;;;;;;;5.00;1.58;;;6.30;99.90;;;;;;5084374;28;20071;-66
2024/01/09 12:26:52;;;;;;;6.60;1.45;;;6.40;99.90;;;;;;5072458;28;20423;-65
2024/01/09 12:29:20;;;;;;;8.15;1.67;;;6.40;99.90;;;;;;5075285;28;20044;-66
2024/01/09 12:31:49;;;;;;;4.63;1.45;;;6.50;99.90;;;;;;5082192;28;20044;-70
2024/01/09 12:34:17;;;;;;;6.03;1.58;;;6.70;99.90;;;;;;5089063;28;20044;-62
2024/01/09 12:36:45;;;;;;;8.60;1.20;;;6.80;99.90;;;;;;5085131;28;20071;-63
2024/01/09 12:39:16;;;;;;;8.38;1.65;;;6.80;99.90;;;;;;5085609;28;20050;-69
2024/01/09 12:41:44;;;;;;;2.47;1.27;;;6.80;99.90;;;;;;5083712;28;20040;-66
2024/01/09 12:44:13;;;;;;;15.63;2.45;;;6.90;99.90;;;;;;5088226;28;20083;-65
2024/01/09 12:46:44;;;;;;;5.63;1.60;;;7.00;99.90;;;;;;5090160;28;20036;-67
2024/01/09 12:49:13;;;;;;;5.35;1.27;;;7.10;99.90;;;;;;5107023;28;20515;-65
2024/01/09 12:51:42;;;;;;;7.88;1.48;;;7.30;99.90;;;;;;5093139;28;20496;-66
2024/01/09 12:54:19;;;;;;;8.43;1.60;;;7.50;99.90;;;;;;5086895;28;20044;-63
2024/01/09 12:56:48;;;;;;;10.70;1.63;;;7.60;99.90;;;;;;5069413;28;20601;-62
2024/01/09 12:59:21;;;;;;;9.17;1.60;;;7.70;99.90;;;;;;5106524;28;20422;-62
2024/01/09 13:01:49;;;;;;;7.25;1.90;;;7.70;99.90;;;;;;5090092;28;20041;-67